createdAt,value
2022-09-26T00:02:41.388Z,93616.03
2022-09-26T00:07:44.890Z,93616.06
2022-09-26T00:12:48.312Z,93613.38
2022-09-26T00:17:52.647Z,93609.81
2022-09-26T00:22:55.710Z,93597.38
2022-09-26T00:27:59.653Z,93584.22
2022-09-26T00:33:03.856Z,93571.06
2022-09-26T00:38:07.391Z,93571.22
2022-09-26T00:43:41.326Z,93573.13
2022-09-26T00:48:48.374Z,93566.41
2022-09-26T00:53:53.854Z,93546.66
2022-09-26T00:59:21.137Z,93552.38
2022-09-26T01:04:28.014Z,93551.75
2022-09-26T01:09:32.520Z,93561.38
2022-09-26T01:14:38.071Z,93561.47
2022-09-26T01:20:08.322Z,93563.31
2022-09-26T01:25:48.752Z,93558.59
2022-09-26T01:31:12.136Z,93549.91
2022-09-26T01:36:31.447Z,93553.25
2022-09-26T01:41:38.292Z,93541.91
2022-09-26T01:47:00.126Z,93529.91
2022-09-26T01:52:19.991Z,93521.63
2022-09-26T01:57:38.651Z,93501.09
2022-09-26T02:02:48.769Z,93480.78
2022-09-26T02:07:59.129Z,93487.56
2022-09-26T02:13:12.249Z,93474.47
2022-09-26T02:18:18.355Z,93491.16
2022-09-26T02:23:22.374Z,93483.09
2022-09-26T02:28:26.230Z,93482.28
2022-09-26T02:33:31.964Z,93469.09
2022-09-26T02:38:38.023Z,93451.41
2022-09-26T02:44:02.355Z,93447.09
2022-09-26T02:49:09.736Z,93458.13
2022-09-26T02:54:27.034Z,93448.94
2022-09-26T03:00:00.450Z,93429.97
2022-09-26T03:05:10.421Z,93444.63
2022-09-26T03:10:16.615Z,93429.88
2022-09-26T03:15:21.901Z,93428.63
2022-09-26T03:20:26.297Z,93437.00
2022-09-26T03:25:32.010Z,93424.44
2022-09-26T03:30:40.303Z,93425.44
2022-09-26T03:36:12.164Z,93428.34
2022-09-26T03:41:15.079Z,93418.16
2022-09-26T03:46:20.820Z,93433.97
2022-09-26T03:51:23.785Z,93437.50
2022-09-26T03:56:28.314Z,93434.06
2022-09-26T04:01:31.812Z,93440.03
2022-09-26T04:06:35.627Z,93441.97
2022-09-26T04:11:39.450Z,93436.25
2022-09-26T04:16:44.531Z,93442.19
2022-09-26T04:21:59.663Z,93440.03
2022-09-26T04:27:06.874Z,93414.59
2022-09-26T04:32:10.042Z,93427.50
2022-09-26T04:37:31.651Z,93417.31
2022-09-26T04:42:37.173Z,93428.81
2022-09-26T04:47:41.242Z,93408.78
2022-09-26T04:53:14.152Z,93410.78
2022-09-26T04:58:38.118Z,93402.09
2022-09-26T05:03:42.593Z,93412.13
2022-09-26T05:08:48.703Z,93410.88
2022-09-26T05:13:58.574Z,93406.53
2022-09-26T05:19:06.193Z,93408.84
2022-09-26T05:24:31.826Z,93409.91
2022-09-26T05:29:35.778Z,93413.13
2022-09-26T05:34:43.028Z,93416.47
2022-09-26T05:40:09.429Z,93413.34
2022-09-26T05:45:17.447Z,93392.69
2022-09-26T05:50:25.396Z,93412.38
2022-09-26T05:55:30.104Z,93390.69
2022-09-26T06:00:48.111Z,93399.13
2022-09-26T06:05:51.933Z,93407.16
2022-09-26T06:11:05.868Z,93405.38
2022-09-26T06:16:13.080Z,93405.63
2022-09-26T06:21:19.387Z,93420.81
2022-09-26T06:26:29.112Z,93425.13
2022-09-26T06:31:33.283Z,93424.47
2022-09-26T06:36:48.532Z,93438.56
2022-09-26T06:41:51.747Z,93433.69
2022-09-26T06:47:13.412Z,93430.41
2022-09-26T06:52:17.034Z,93440.72
2022-09-26T06:57:20.713Z,93437.25
2022-09-26T07:02:26.608Z,93447.47
2022-09-26T07:07:55.210Z,93452.03
2022-09-26T07:13:04.577Z,93454.94
2022-09-26T07:18:07.932Z,93460.50
2022-09-26T07:23:30.715Z,93465.78
2022-09-26T07:28:34.309Z,93459.59
2022-09-26T07:33:40.413Z,93463.44
2022-09-26T07:38:50.026Z,93456.59
2022-09-26T07:49:37.835Z,93459.09
2022-09-26T07:54:53.180Z,93447.72
2022-09-26T08:00:17.403Z,93447.69
2022-09-26T08:05:32.615Z,93438.84
2022-09-26T08:10:36.284Z,93433.31
2022-09-26T08:16:04.010Z,93433.78
2022-09-26T08:21:08.027Z,93429.56
2022-09-26T08:26:12.429Z,93412.56
2022-09-26T08:31:21.249Z,93420.72
2022-09-26T08:36:25.842Z,93427.88
2022-09-26T08:42:08.346Z,93418.84
2022-09-26T08:47:50.744Z,93392.69
2022-09-26T08:53:10.783Z,93399.66
2022-09-26T08:58:29.324Z,93387.78
2022-09-26T09:03:52.401Z,93410.91
2022-09-26T09:08:58.315Z,93401.88
2022-09-26T09:15:07.713Z,93385.88
2022-09-26T09:21:10.748Z,93382.94
2022-09-26T09:32:20.637Z,93394.78
2022-09-26T09:37:50.855Z,93385.19
2022-09-26T09:43:34.421Z,93377.16
2022-09-26T09:48:37.879Z,93371.41
2022-09-26T09:54:07.313Z,93368.31
2022-09-26T09:59:22.912Z,93373.75
2022-09-26T10:04:49.322Z,93369.22
2022-09-26T10:09:54.309Z,93365.09
2022-09-26T10:15:19.918Z,93351.69
2022-09-26T10:20:53.094Z,93368.63
2022-09-26T10:26:04.069Z,93392.34
2022-09-26T10:31:10.967Z,93368.81
2022-09-26T10:36:43.424Z,93361.03
2022-09-26T10:41:49.303Z,93357.31
2022-09-26T10:46:58.030Z,93341.16
2022-09-26T10:52:34.835Z,93336.78
2022-09-26T10:57:51.041Z,93323.44
2022-09-26T11:02:56.906Z,93297.09
2022-09-26T11:08:06.175Z,93278.31
2022-09-26T11:14:05.374Z,93276.47
2022-09-26T11:19:22.275Z,93267.38
2022-09-26T11:24:46.891Z,93251.97
2022-09-26T11:30:00.887Z,93259.16
2022-09-26T11:35:04.473Z,93239.47
2022-09-26T11:40:22.094Z,93237.56
2022-09-26T11:45:41.008Z,93218.50
2022-09-26T11:51:34.745Z,93227.97
2022-09-26T11:56:58.327Z,93229.06
2022-09-26T12:02:38.365Z,93244.84
2022-09-26T12:08:13.843Z,93238.38
2022-09-26T12:13:57.919Z,93237.34
2022-09-26T12:19:05.412Z,93245.00
2022-09-26T12:24:28.972Z,93238.66
2022-09-26T12:29:41.363Z,93239.34
2022-09-26T12:34:55.874Z,93228.47
2022-09-26T12:40:12.151Z,93205.13
2022-09-26T12:45:52.463Z,93197.59
2022-09-26T12:50:57.027Z,93190.81
2022-09-26T12:56:15.824Z,93177.19
2022-09-26T13:01:47.829Z,93161.44
2022-09-26T13:07:22.662Z,93132.91
2022-09-26T13:12:41.077Z,93132.19
2022-09-26T13:17:50.676Z,93142.41
2022-09-26T13:22:58.938Z,93137.31
2022-09-26T13:28:12.676Z,93141.16
2022-09-26T13:33:23.967Z,93124.44
2022-09-26T13:38:34.039Z,93117.44
2022-09-26T13:43:44.187Z,93106.69
2022-09-26T13:49:03.111Z,93100.69
2022-09-26T13:54:27.259Z,93102.84
2022-09-26T13:59:51.764Z,93099.13
2022-09-26T14:05:20.742Z,93112.88
2022-09-26T14:10:34.638Z,93117.88
2022-09-26T14:15:50.466Z,93104.13
2022-09-26T14:21:01.469Z,93090.25
2022-09-26T14:26:40.750Z,93075.66
2022-09-26T14:32:05.546Z,93067.75
2022-09-26T14:37:24.503Z,93074.50
2022-09-26T14:42:36.504Z,93084.19
2022-09-26T14:47:45.008Z,93070.06
2022-09-26T14:52:58.485Z,93082.72
2022-09-26T14:58:44.096Z,93082.59
2022-09-26T15:03:56.924Z,93084.25
2022-09-26T15:09:08.764Z,93090.13
2022-09-26T15:14:38.363Z,93073.44
2022-09-26T15:19:51.056Z,93057.91
2022-09-26T15:25:08.846Z,93070.06
2022-09-26T15:30:20.061Z,93075.81
2022-09-26T15:35:23.565Z,93096.16
2022-09-26T15:40:29.863Z,93097.63
2022-09-26T15:45:50.249Z,93085.81
2022-09-26T15:51:19.437Z,93090.09
2022-09-26T15:56:26.774Z,93097.16
2022-09-26T16:01:32.016Z,93097.28
2022-09-26T16:06:39.550Z,93086.63
2022-09-26T16:11:58.456Z,93089.53
2022-09-26T16:17:19.451Z,93094.44
2022-09-26T16:22:40.808Z,93096.88
2022-09-26T16:27:45.503Z,93088.19
2022-09-26T16:32:48.503Z,93104.03
2022-09-26T16:38:03.552Z,93098.91
2022-09-26T16:43:31.830Z,93092.47
2022-09-26T16:48:42.260Z,93098.28
2022-09-26T16:53:53.820Z,93104.75
2022-09-26T16:59:01.178Z,93113.50
2022-09-26T17:04:05.371Z,93117.53
2022-09-26T17:09:23.702Z,93130.50
2022-09-26T17:14:30.964Z,93120.53
2022-09-26T17:19:39.371Z,93121.31
2022-09-26T17:24:43.210Z,93135.38
2022-09-26T17:29:49.842Z,93128.19
2022-09-26T17:34:53.740Z,93120.22
2022-09-26T17:39:57.996Z,93102.59
2022-09-26T17:45:01.163Z,93074.16
2022-09-26T17:50:05.623Z,93099.28
2022-09-26T17:55:11.309Z,93085.44
2022-09-26T18:00:18.305Z,93081.00
2022-09-26T18:05:26.648Z,93097.63
2022-09-26T18:10:33.432Z,93087.31
2022-09-26T18:15:36.846Z,93106.47
2022-09-26T18:20:40.982Z,93114.63
2022-09-26T18:25:47.418Z,93122.25
2022-09-26T18:30:58.410Z,93117.34
2022-09-26T18:36:01.707Z,93119.53
2022-09-26T18:41:07.313Z,93107.16
2022-09-26T18:46:17.108Z,93113.34
2022-09-26T18:51:20.748Z,93125.53
2022-09-26T18:56:42.888Z,93122.75
2022-09-26T19:01:46.283Z,93134.47
2022-09-26T19:07:01.830Z,93126.19
2022-09-26T19:12:05.578Z,93132.50
2022-09-26T19:17:09.059Z,93141.91
2022-09-26T19:22:16.953Z,93140.13
2022-09-26T19:27:27.386Z,93143.25
2022-09-26T19:32:40.911Z,93138.88
2022-09-26T19:37:46.363Z,93125.28
2022-09-26T19:42:51.666Z,93134.09
2022-09-26T19:47:56.400Z,93120.47
2022-09-26T19:52:59.370Z,93117.78
2022-09-26T19:58:12.073Z,93119.25
2022-09-26T20:03:29.507Z,93107.63
2022-09-26T20:08:32.707Z,93101.69
2022-09-26T20:13:56.191Z,93099.81
2022-09-26T20:18:59.800Z,93095.19
2022-09-26T20:24:03.210Z,93084.88
2022-09-26T20:29:11.357Z,93076.03
2022-09-26T20:34:17.257Z,93057.09
2022-09-26T20:39:25.627Z,93048.56
2022-09-26T20:44:33.965Z,93054.78
2022-09-26T20:49:59.588Z,93044.09
2022-09-26T20:55:02.622Z,93038.47
2022-09-26T21:00:06.918Z,93051.25
2022-09-26T21:05:18.907Z,93058.91
2022-09-26T21:10:31.167Z,93043.97
2022-09-26T21:15:34.318Z,93035.88
2022-09-26T21:20:37.832Z,93040.41
2022-09-26T21:26:01.613Z,93048.81
2022-09-26T21:31:06.866Z,93052.34
2022-09-26T21:36:11.146Z,93060.13
2022-09-26T21:41:14.539Z,93054.16
2022-09-26T21:46:18.097Z,93051.44
2022-09-26T21:51:26.510Z,93057.63
2022-09-26T21:56:35.894Z,93067.94
2022-09-26T22:01:38.855Z,93080.53
2022-09-26T22:06:42.233Z,93088.34
2022-09-26T22:11:45.717Z,93098.78
2022-09-26T22:16:49.341Z,93093.53
2022-09-26T22:21:52.835Z,93091.34
2022-09-26T22:26:56.209Z,93067.03
2022-09-26T22:31:59.551Z,93061.91
2022-09-26T22:37:03.726Z,93069.69
2022-09-26T22:42:07.821Z,93061.19
2022-09-26T22:47:11.900Z,93057.53
2022-09-26T22:52:15.100Z,93059.31
2022-09-26T22:57:22.000Z,93055.69
2022-09-26T23:02:25.467Z,93055.91
2022-09-26T23:07:30.515Z,93051.75
2022-09-26T23:12:34.008Z,93064.47
2022-09-26T23:17:37.618Z,93059.78
2022-09-26T23:22:41.406Z,93064.28
2022-09-26T23:27:44.763Z,93058.19
2022-09-26T23:32:49.177Z,93036.91
2022-09-26T23:37:53.108Z,93034.94
2022-09-26T23:42:56.227Z,93030.50
2022-09-26T23:48:00.286Z,93031.75
2022-09-26T23:53:06.641Z,93029.50
2022-09-26T23:58:10.884Z,93025.53
